createdAt,value
2018-05-17T00:00:39.150Z,91.10
2018-05-17T00:03:08.718Z,91.20
2018-05-17T00:05:37.571Z,91.10
2018-05-17T00:08:07.156Z,90.80
2018-05-17T00:10:36.174Z,90.60
2018-05-17T00:13:05.065Z,90.80
2018-05-17T00:15:34.648Z,90.60
2018-05-17T00:18:03.502Z,90.60
2018-05-17T00:20:32.291Z,90.60
2018-05-17T00:23:01.139Z,90.60
2018-05-17T00:25:30.701Z,91.00
2018-05-17T00:27:59.504Z,91.00
2018-05-17T00:30:28.313Z,91.20
2018-05-17T00:32:57.205Z,91.30
2018-05-17T00:35:26.022Z,91.30
2018-05-17T00:37:54.825Z,91.20
2018-05-17T00:40:23.640Z,91.30
2018-05-17T00:42:52.471Z,91.50
2018-05-17T00:45:21.304Z,91.40
2018-05-17T00:47:50.099Z,91.40
2018-05-17T00:50:19.829Z,91.40
2018-05-17T00:53:07.235Z,91.40
2018-05-17T00:55:36.032Z,91.40
2018-05-17T00:58:04.809Z,91.20
2018-05-17T01:00:33.637Z,91.50
2018-05-17T01:03:02.427Z,91.30
2018-05-17T01:05:32.019Z,91.40
2018-05-17T01:08:00.837Z,91.30
2018-05-17T01:10:30.403Z,91.50
2018-05-17T01:12:59.553Z,91.50
2018-05-17T01:15:28.333Z,91.60
2018-05-17T01:17:57.145Z,91.60
2018-05-17T01:20:25.941Z,91.60
2018-05-17T01:22:55.543Z,91.80
2018-05-17T01:25:24.355Z,91.80
2018-05-17T01:27:53.917Z,91.90
2018-05-17T01:30:22.730Z,91.90
2018-05-17T01:32:51.638Z,91.80
2018-05-17T01:35:20.487Z,91.70
2018-05-17T01:38:07.861Z,91.80
2018-05-17T01:40:36.682Z,91.70
2018-05-17T01:43:05.596Z,91.80
2018-05-17T01:45:34.416Z,91.80
2018-05-17T01:48:03.213Z,91.80
2018-05-17T01:50:32.031Z,91.90
2018-05-17T01:53:00.862Z,92.00
2018-05-17T01:55:29.671Z,92.20
2018-05-17T01:57:58.485Z,92.30
2018-05-17T02:00:28.066Z,92.60
2018-05-17T02:02:56.857Z,92.60
2018-05-17T02:05:25.668Z,92.90
2018-05-17T02:07:55.288Z,92.90
2018-05-17T02:10:24.859Z,93.00
2018-05-17T02:12:53.674Z,92.90
2018-05-17T02:15:22.502Z,93.00
2018-05-17T02:17:51.322Z,92.90
2018-05-17T02:20:20.134Z,93.00
2018-05-17T02:22:48.944Z,93.00
2018-05-17T02:25:17.744Z,93.10
2018-05-17T02:27:46.536Z,93.10
2018-05-17T02:30:15.348Z,93.10
2018-05-17T02:32:44.909Z,93.10
2018-05-17T02:35:13.708Z,93.10
2018-05-17T02:37:42.536Z,93.20
2018-05-17T02:40:11.349Z,93.10
2018-05-17T02:42:40.937Z,93.10
2018-05-17T02:45:09.759Z,93.10
2018-05-17T02:47:38.550Z,93.20
2018-05-17T02:50:07.356Z,93.10
2018-05-17T02:52:36.914Z,93.20
2018-05-17T02:55:05.712Z,93.20
2018-05-17T02:57:34.520Z,93.20
2018-05-17T03:00:03.317Z,93.20
2018-05-17T03:02:32.192Z,93.20
2018-05-17T03:05:00.909Z,93.20
2018-05-17T03:07:29.732Z,93.30
2018-05-17T03:09:58.644Z,93.30
2018-05-17T03:12:28.226Z,93.30
2018-05-17T03:14:57.085Z,93.30
2018-05-17T03:17:26.671Z,93.20
2018-05-17T03:19:55.502Z,93.10
2018-05-17T03:22:25.094Z,93.20
2018-05-17T03:24:53.918Z,93.20
2018-05-17T03:27:22.712Z,93.20
2018-05-17T03:29:51.655Z,93.10
2018-05-17T03:32:21.231Z,93.00
2018-05-17T03:34:50.085Z,93.00
2018-05-17T03:37:19.679Z,93.10
2018-05-17T03:39:48.588Z,93.00
2018-05-17T03:42:18.206Z,92.90
2018-05-17T03:44:47.034Z,93.10
2018-05-17T03:47:16.600Z,93.10
2018-05-17T03:49:45.409Z,93.10
2018-05-17T03:52:14.280Z,93.20
2018-05-17T03:54:43.088Z,93.20
2018-05-17T03:57:11.999Z,93.30
2018-05-17T03:59:40.808Z,93.40
2018-05-17T04:02:28.119Z,93.40
2018-05-17T04:05:14.788Z,93.30
2018-05-17T04:07:43.616Z,93.30
2018-05-17T04:10:13.267Z,93.30
2018-05-17T04:12:42.865Z,93.30
2018-05-17T04:15:11.692Z,93.30
2018-05-17T04:17:40.498Z,93.30
2018-05-17T04:20:09.323Z,93.40
2018-05-17T04:22:39.721Z,93.80
2018-05-17T04:25:08.552Z,93.80
2018-05-17T04:27:37.376Z,93.90
2018-05-17T04:30:06.296Z,94.20
2018-05-17T04:32:36.219Z,94.50
2018-05-17T04:35:05.044Z,94.50
2018-05-17T04:37:33.866Z,94.60
2018-05-17T04:40:02.681Z,94.80
2018-05-17T04:42:31.540Z,95.10
2018-05-17T04:45:01.134Z,95.60
2018-05-17T04:47:30.537Z,95.60
2018-05-17T04:50:00.835Z,95.70
2018-05-17T04:52:29.766Z,95.70
2018-05-17T04:54:58.588Z,95.80
2018-05-17T04:57:27.473Z,95.80
2018-05-17T04:59:56.281Z,95.90
2018-05-17T05:02:25.444Z,95.90
2018-05-17T05:04:54.343Z,96.00
2018-05-17T05:07:23.155Z,96.00
2018-05-17T05:09:52.749Z,96.00
2018-05-17T05:12:22.371Z,96.10
2018-05-17T05:14:51.182Z,96.10
2018-05-17T05:17:19.998Z,95.90
2018-05-17T05:19:49.615Z,96.20
2018-05-17T05:22:19.169Z,96.30
2018-05-17T05:24:47.981Z,96.20
2018-05-17T05:27:16.848Z,96.20
2018-05-17T05:29:45.671Z,96.30
2018-05-17T05:32:14.471Z,96.30
2018-05-17T05:34:43.275Z,96.20
2018-05-17T05:37:12.089Z,96.20
2018-05-17T05:39:41.001Z,96.20
2018-05-17T05:42:09.841Z,96.20
2018-05-17T05:44:38.696Z,96.20
2018-05-17T05:47:08.403Z,95.90
2018-05-17T05:49:38.049Z,96.00
2018-05-17T05:52:06.888Z,96.00
2018-05-17T05:54:36.778Z,96.00
2018-05-17T05:57:05.620Z,96.00
2018-05-17T05:59:34.475Z,96.10
2018-05-17T06:02:04.074Z,96.20
2018-05-17T06:04:33.667Z,96.10
2018-05-17T06:07:03.235Z,96.00
2018-05-17T06:09:32.043Z,96.00
2018-05-17T06:12:00.857Z,95.90
2018-05-17T06:14:29.653Z,95.90
2018-05-17T06:16:58.479Z,95.80
2018-05-17T06:19:28.062Z,95.70
2018-05-17T06:21:57.643Z,95.90
2018-05-17T06:24:26.452Z,95.60
2018-05-17T06:26:56.073Z,95.70
2018-05-17T06:29:25.689Z,95.70
2018-05-17T06:31:55.279Z,95.70
2018-05-17T06:34:24.079Z,95.70
2018-05-17T06:36:52.913Z,95.60
2018-05-17T06:39:22.488Z,95.50
2018-05-17T06:41:51.463Z,95.50
2018-05-17T06:44:20.309Z,95.50
2018-05-17T06:46:49.126Z,95.50
2018-05-17T06:49:17.926Z,95.60
2018-05-17T06:51:46.782Z,95.50
2018-05-17T06:54:15.594Z,95.50
2018-05-17T06:56:45.190Z,95.60
2018-05-17T06:59:13.993Z,95.30
2018-05-17T07:01:43.682Z,94.60
2018-05-17T07:04:12.531Z,94.90
2018-05-17T07:06:41.424Z,94.50
2018-05-17T07:09:10.185Z,94.20
2018-05-17T07:11:39.042Z,94.20
2018-05-17T07:14:07.852Z,94.50
2018-05-17T07:16:37.480Z,94.30
2018-05-17T07:19:07.032Z,94.40
2018-05-17T07:21:35.975Z,94.30
2018-05-17T07:24:04.822Z,94.10
2018-05-17T07:26:33.615Z,94.10
2018-05-17T07:29:03.212Z,94.10
2018-05-17T07:31:32.029Z,94.10
2018-05-17T07:34:01.590Z,94.00
2018-05-17T07:36:30.400Z,94.00
2018-05-17T07:38:59.242Z,94.00
2018-05-17T07:41:28.080Z,93.80
2018-05-17T07:43:56.928Z,93.80
2018-05-17T07:46:25.745Z,93.80
2018-05-17T07:48:54.588Z,93.80
2018-05-17T07:51:23.402Z,93.90
2018-05-17T07:53:52.224Z,94.10
2018-05-17T07:56:21.033Z,94.10
2018-05-17T07:58:50.608Z,94.20
2018-05-17T08:01:19.556Z,94.20
2018-05-17T08:03:48.348Z,94.30
2018-05-17T08:06:17.978Z,94.20
2018-05-17T08:08:47.538Z,93.70
2018-05-17T08:11:16.468Z,93.70
2018-05-17T08:13:46.151Z,93.60
2018-05-17T08:16:15.003Z,93.50
2018-05-17T08:18:43.817Z,93.40
2018-05-17T08:21:13.512Z,93.00
2018-05-17T08:23:43.127Z,93.00
2018-05-17T08:26:11.954Z,93.00
2018-05-17T08:28:40.780Z,93.10
2018-05-17T08:31:09.578Z,93.00
2018-05-17T08:33:38.420Z,93.10
2018-05-17T08:36:08.057Z,92.90
2018-05-17T08:38:38.756Z,92.70
2018-05-17T08:41:07.572Z,92.70
2018-05-17T08:43:37.710Z,92.40
2018-05-17T08:46:06.523Z,92.40
2018-05-17T08:48:36.100Z,92.50
2018-05-17T08:51:04.920Z,92.10
2018-05-17T08:53:33.729Z,92.40
2018-05-17T08:56:02.598Z,92.00
2018-05-17T08:58:31.447Z,92.00
2018-05-17T09:01:00.300Z,92.00
2018-05-17T09:03:29.156Z,92.00
2018-05-17T09:05:57.980Z,91.90
2018-05-17T09:08:26.872Z,91.70
2018-05-17T09:10:56.422Z,90.70
2018-05-17T09:13:25.282Z,90.70
2018-05-17T09:15:54.046Z,90.90
2018-05-17T09:18:23.628Z,89.90
2018-05-17T09:20:52.549Z,90.10
2018-05-17T09:23:21.393Z,89.70
2018-05-17T09:25:50.245Z,88.60
2018-05-17T09:28:19.834Z,88.30
2018-05-17T09:30:48.659Z,87.50
2018-05-17T09:33:17.583Z,86.60
2018-05-17T09:35:46.479Z,86.00
2018-05-17T09:38:15.983Z,84.70
2018-05-17T09:40:44.833Z,84.60
2018-05-17T09:43:14.152Z,83.10
2018-05-17T09:45:43.646Z,83.90
2018-05-17T09:48:13.943Z,84.50
2018-05-17T09:50:42.885Z,84.50
2018-05-17T09:53:12.471Z,83.70
2018-05-17T09:55:41.372Z,83.60
2018-05-17T09:58:10.221Z,82.70
2018-05-17T10:00:43.069Z,81.50
2018-05-17T10:03:11.897Z,81.20
2018-05-17T10:05:40.692Z,80.90
2018-05-17T10:08:09.543Z,81.50
2018-05-17T10:10:38.368Z,81.80
2018-05-17T10:13:08.486Z,81.60
2018-05-17T10:15:37.399Z,81.60
2018-05-17T10:18:06.131Z,83.00
2018-05-17T10:20:35.713Z,83.30
2018-05-17T10:23:04.568Z,83.20
2018-05-17T10:25:34.130Z,81.20
2018-05-17T10:28:03.760Z,80.40
2018-05-17T10:30:32.627Z,80.40
2018-05-17T10:33:01.396Z,81.10
2018-05-17T10:35:30.250Z,81.60
2018-05-17T10:37:59.080Z,82.10
2018-05-17T10:40:27.924Z,82.30
2018-05-17T10:42:56.751Z,82.40
2018-05-17T10:45:25.688Z,81.00
2018-05-17T10:47:54.673Z,80.50
2018-05-17T10:50:23.481Z,80.10
2018-05-17T10:52:52.294Z,79.00
2018-05-17T10:55:21.282Z,78.60
2018-05-17T10:57:50.884Z,79.10
2018-05-17T11:00:20.618Z,79.70
2018-05-17T11:02:49.418Z,79.70
2018-05-17T11:05:18.251Z,79.20
2018-05-17T11:07:47.078Z,79.00
2018-05-17T11:10:15.894Z,79.10
2018-05-17T11:12:44.701Z,78.70
2018-05-17T11:15:13.600Z,78.30
2018-05-17T11:17:42.413Z,77.70
2018-05-17T11:20:11.194Z,76.60
2018-05-17T11:22:40.003Z,76.10
2018-05-17T11:25:08.822Z,74.20
2018-05-17T11:27:37.626Z,74.30
2018-05-17T11:30:06.450Z,73.60
2018-05-17T11:32:35.332Z,72.90
2018-05-17T11:35:04.160Z,72.90
2018-05-17T11:37:33.760Z,72.50
2018-05-17T11:40:03.376Z,73.50
2018-05-17T11:42:32.935Z,73.30
2018-05-17T11:45:01.772Z,73.20
2018-05-17T11:47:31.363Z,75.00
2018-05-17T11:50:00.184Z,74.90
2018-05-17T11:52:29.750Z,73.10
2018-05-17T11:54:58.594Z,73.10
2018-05-17T11:57:27.473Z,72.00
2018-05-17T11:59:56.403Z,72.30
2018-05-17T12:02:25.970Z,70.80
2018-05-17T12:04:54.850Z,70.80
2018-05-17T12:07:24.425Z,69.00
2018-05-17T12:09:54.785Z,68.70
2018-05-17T12:12:23.671Z,68.70
2018-05-17T12:14:52.787Z,68.40
2018-05-17T12:17:22.415Z,67.90
2018-05-17T12:22:32.013Z,67.90
2018-05-17T12:25:00.846Z,67.20
2018-05-17T12:27:30.421Z,66.60
2018-05-17T12:30:00.735Z,67.10
2018-05-17T12:32:29.665Z,67.10
2018-05-17T12:34:59.333Z,66.80
2018-05-17T12:37:28.913Z,66.80
2018-05-17T12:39:58.660Z,66.60
2018-05-17T12:42:27.495Z,66.90
2018-05-17T12:44:56.311Z,67.30
2018-05-17T12:47:25.140Z,67.50
2018-05-17T12:50:07.143Z,66.80
2018-05-17T12:52:36.731Z,66.40
2018-05-17T12:55:06.282Z,65.30
2018-05-17T12:57:35.113Z,65.30
2018-05-17T13:00:04.710Z,66.30
2018-05-17T13:02:33.523Z,66.00
2018-05-17T13:05:02.339Z,65.70
2018-05-17T13:07:31.193Z,64.70
2018-05-17T13:10:00.759Z,61.90
2018-05-17T13:12:29.559Z,62.00
2018-05-17T13:14:58.382Z,61.80
2018-05-17T13:17:27.949Z,62.10
2018-05-17T13:19:56.777Z,62.10
2018-05-17T13:22:26.500Z,63.20
2018-05-17T13:24:55.449Z,63.20
2018-05-17T13:27:24.919Z,63.40
2018-05-17T13:29:53.739Z,63.40
2018-05-17T13:32:23.365Z,63.40
2018-05-17T13:34:52.166Z,63.30
2018-05-17T13:37:21.831Z,63.10
2018-05-17T13:39:50.668Z,62.60
2018-05-17T13:42:19.527Z,62.10
2018-05-17T13:44:48.315Z,61.90
2018-05-17T13:47:17.140Z,61.60
2018-05-17T13:49:45.938Z,62.50
2018-05-17T13:52:14.811Z,64.20
2018-05-17T13:54:43.601Z,65.40
2018-05-17T13:57:12.528Z,66.30
2018-05-17T13:59:41.364Z,66.30
2018-05-17T14:02:10.183Z,66.00
2018-05-17T14:04:38.993Z,65.40
2018-05-17T14:07:07.809Z,65.60
2018-05-17T14:09:37.540Z,66.20
2018-05-17T14:12:07.108Z,66.60
2018-05-17T14:14:36.006Z,66.60
2018-05-17T14:17:04.922Z,67.00
2018-05-17T14:19:33.688Z,66.90
2018-05-17T14:22:02.500Z,67.00
2018-05-17T14:24:32.120Z,66.90
2018-05-17T14:27:01.729Z,67.60
2018-05-17T14:29:31.360Z,67.80
2018-05-17T14:32:00.212Z,67.70
2018-05-17T14:34:29.797Z,67.70
2018-05-17T14:36:59.375Z,67.50
2018-05-17T14:39:28.184Z,67.40
2018-05-17T14:41:57.002Z,67.50
2018-05-17T14:44:25.834Z,67.50
2018-05-17T14:46:54.632Z,67.10
2018-05-17T14:49:23.498Z,66.90
2018-05-17T14:51:52.345Z,66.70
2018-05-17T14:54:21.959Z,65.90
2018-05-17T14:56:51.534Z,65.60
2018-05-17T14:59:20.363Z,65.50
2018-05-17T15:01:49.247Z,66.00
2018-05-17T15:04:18.083Z,66.60
2018-05-17T15:06:46.961Z,67.50
2018-05-17T15:09:15.789Z,68.10
2018-05-17T15:11:45.399Z,69.40
2018-05-17T15:14:14.275Z,69.40
2018-05-17T15:16:43.823Z,69.90
2018-05-17T15:19:12.693Z,69.90
2018-05-17T15:21:42.210Z,70.10
2018-05-17T15:24:11.042Z,70.00
2018-05-17T15:26:39.863Z,70.10
2018-05-17T15:29:09.470Z,70.70
2018-05-17T15:31:38.359Z,69.90
2018-05-17T15:34:07.180Z,67.20
2018-05-17T15:36:36.760Z,65.20
2018-05-17T15:39:06.288Z,65.20
2018-05-17T15:41:35.989Z,62.80
2018-05-17T15:44:05.575Z,62.90
2018-05-17T15:46:34.446Z,62.70
2018-05-17T15:49:03.395Z,63.30
2018-05-17T15:51:33.004Z,64.60
2018-05-17T15:54:01.806Z,64.50
2018-05-17T15:56:30.604Z,64.90
2018-05-17T15:58:59.473Z,64.70
2018-05-17T16:01:29.084Z,64.30
2018-05-17T16:03:57.863Z,64.30
2018-05-17T16:06:26.719Z,64.20
2018-05-17T16:08:56.289Z,64.10
2018-05-17T16:11:25.103Z,63.90
2018-05-17T16:13:53.965Z,63.90
2018-05-17T16:16:23.594Z,64.30
2018-05-17T16:18:52.449Z,64.30
2018-05-17T16:21:22.035Z,64.50
2018-05-17T16:23:50.828Z,64.50
2018-05-17T16:26:19.643Z,64.50
2018-05-17T16:28:49.267Z,64.40
2018-05-17T16:31:18.826Z,63.90
2018-05-17T16:33:47.749Z,63.80
2018-05-17T16:36:17.356Z,63.40
2018-05-17T16:38:46.964Z,63.60
2018-05-17T16:41:16.533Z,63.90
2018-05-17T16:43:45.333Z,63.80
2018-05-17T16:46:14.158Z,63.50
2018-05-17T16:48:43.066Z,63.10
2018-05-17T16:51:11.878Z,63.00
2018-05-17T16:53:41.467Z,62.70
2018-05-17T16:56:10.299Z,61.80
2018-05-17T16:58:39.247Z,61.60
2018-05-17T17:01:08.054Z,60.90
2018-05-17T17:03:36.885Z,59.90
2018-05-17T17:06:05.816Z,59.20
2018-05-17T17:08:34.611Z,59.10
2018-05-17T17:11:03.390Z,58.50
2018-05-17T17:13:32.245Z,57.80
2018-05-17T17:16:01.111Z,57.80
2018-05-17T17:18:29.923Z,57.90
2018-05-17T17:20:59.485Z,57.90
2018-05-17T17:23:28.307Z,57.90
2018-05-17T17:25:57.180Z,58.60
2018-05-17T17:28:26.004Z,58.20
2018-05-17T17:30:54.900Z,57.80
2018-05-17T17:33:23.799Z,57.80
2018-05-17T17:35:53.487Z,57.90
2018-05-17T17:38:22.373Z,57.80
2018-05-17T17:40:51.186Z,58.00
2018-05-17T17:43:19.983Z,58.10
2018-05-17T17:45:48.792Z,58.20
2018-05-17T17:48:17.636Z,58.50
2018-05-17T17:50:47.141Z,58.60
2018-05-17T17:53:16.227Z,58.80
2018-05-17T17:55:45.824Z,59.20
2018-05-17T17:58:15.460Z,58.90
2018-05-17T18:00:44.332Z,58.90
2018-05-17T18:03:13.195Z,59.40
2018-05-17T18:05:42.789Z,59.90
2018-05-17T18:08:12.442Z,60.10
2018-05-17T18:10:41.270Z,60.10
2018-05-17T18:13:11.310Z,60.30
2018-05-17T18:15:40.140Z,60.20
2018-05-17T18:18:08.948Z,60.40
2018-05-17T18:20:37.798Z,60.30
2018-05-17T18:23:07.373Z,60.40
2018-05-17T18:25:36.169Z,60.40
2018-05-17T18:28:04.992Z,60.60
2018-05-17T18:30:33.792Z,60.20
2018-05-17T18:33:02.859Z,60.20
2018-05-17T18:35:32.476Z,60.30
2018-05-17T18:38:02.016Z,60.20
2018-05-17T18:40:30.870Z,60.20
2018-05-17T18:42:59.676Z,60.50
2018-05-17T18:45:29.537Z,60.90
2018-05-17T18:47:58.362Z,61.20
2018-05-17T18:50:27.693Z,61.20
2018-05-17T18:52:56.478Z,61.40
2018-05-17T18:55:26.060Z,62.40
2018-05-17T18:57:54.860Z,61.70
2018-05-17T19:00:23.764Z,61.80
2018-05-17T19:02:53.262Z,61.70
2018-05-17T19:05:22.948Z,61.70
2018-05-17T19:07:51.744Z,61.50
2018-05-17T19:10:21.340Z,62.00
2018-05-17T19:12:50.128Z,61.90
2018-05-17T19:15:18.945Z,62.20
2018-05-17T19:17:47.777Z,62.50
2018-05-17T19:20:16.656Z,62.60
2018-05-17T19:22:45.580Z,62.50
2018-05-17T19:25:15.124Z,62.40
2018-05-17T19:27:43.941Z,62.40
2018-05-17T19:30:12.764Z,62.50
2018-05-17T19:32:42.372Z,62.90
2018-05-17T19:35:11.186Z,62.90
2018-05-17T19:37:40.766Z,63.20
2018-05-17T19:40:09.568Z,63.20
2018-05-17T19:42:38.482Z,63.30
2018-05-17T19:45:07.316Z,63.60
2018-05-17T19:47:36.115Z,63.60
2018-05-17T19:50:06.570Z,63.70
2018-05-17T19:52:36.158Z,64.20
2018-05-17T19:55:05.024Z,64.10
2018-05-17T19:57:33.832Z,64.30
2018-05-17T20:00:02.653Z,64.70
2018-05-17T20:02:31.461Z,65.20
2018-05-17T20:05:00.288Z,65.60
2018-05-17T20:07:29.100Z,66.00
2018-05-17T20:09:57.877Z,66.40
2018-05-17T20:12:26.693Z,66.90
2018-05-17T20:14:55.546Z,67.40
2018-05-17T20:17:24.347Z,67.90
2018-05-17T20:20:04.641Z,68.50
2018-05-17T20:22:33.471Z,69.10
2018-05-17T20:25:02.329Z,69.50
2018-05-17T20:27:31.141Z,69.80
2018-05-17T20:29:59.960Z,70.00
2018-05-17T20:32:28.867Z,70.30
2018-05-17T20:34:57.697Z,70.30
2018-05-17T20:37:27.302Z,70.90
2018-05-17T20:39:56.905Z,71.20
2018-05-17T20:42:25.877Z,71.20
2018-05-17T20:44:54.640Z,71.60
2018-05-17T20:47:23.473Z,71.80
2018-05-17T20:50:04.601Z,72.50
2018-05-17T20:52:33.532Z,72.50
2018-05-17T20:55:03.143Z,72.90
2018-05-17T20:57:31.952Z,73.30
2018-05-17T21:00:00.771Z,73.80
2018-05-17T21:02:29.565Z,74.30
2018-05-17T21:04:58.392Z,74.70
2018-05-17T21:07:27.192Z,75.20
2018-05-17T21:09:56.798Z,77.10
2018-05-17T21:12:25.597Z,76.30
2018-05-17T21:14:54.425Z,76.90
2018-05-17T21:17:23.250Z,77.40
2018-05-17T21:20:04.121Z,77.90
2018-05-17T21:22:32.997Z,77.80
2018-05-17T21:25:01.848Z,78.20
2018-05-17T21:27:31.455Z,78.90
2018-05-17T21:30:00.317Z,78.80
2018-05-17T21:32:29.133Z,79.10
2018-05-17T21:34:58.891Z,79.40
2018-05-17T21:37:28.493Z,80.00
2018-05-17T21:39:58.101Z,80.20
2018-05-17T21:42:27.643Z,80.30
2018-05-17T21:44:56.481Z,80.30
2018-05-17T21:47:25.239Z,80.70
2018-05-17T21:49:54.054Z,81.00
2018-05-17T21:52:22.865Z,81.20
2018-05-17T21:54:51.713Z,81.40
2018-05-17T21:57:20.631Z,81.70
2018-05-17T21:59:50.219Z,82.40
2018-05-17T22:02:19.017Z,82.40
2018-05-17T22:04:47.836Z,82.90
2018-05-17T22:07:17.429Z,83.40
2018-05-17T22:09:46.224Z,83.40
2018-05-17T22:12:15.035Z,83.50
2018-05-17T22:14:44.652Z,83.90
2018-05-17T22:17:14.246Z,84.10
2018-05-17T22:19:43.044Z,84.10
2018-05-17T22:22:12.611Z,84.50
2018-05-17T22:24:41.429Z,84.30
2018-05-17T22:27:10.240Z,84.50
2018-05-17T22:29:39.070Z,84.70
2018-05-17T22:32:08.644Z,84.90
2018-05-17T22:34:38.225Z,84.70
2018-05-17T22:37:07.024Z,84.70
2018-05-17T22:39:36.594Z,84.90
2018-05-17T22:42:05.443Z,84.90
2018-05-17T22:44:34.280Z,85.00
2018-05-17T22:47:03.824Z,85.30
2018-05-17T22:49:33.802Z,85.30
2018-05-17T22:52:03.398Z,85.20
2018-05-17T22:54:32.310Z,85.20
2018-05-17T22:57:13.014Z,85.30
2018-05-17T22:59:41.831Z,85.60
2018-05-17T23:02:10.636Z,85.80
2018-05-17T23:04:39.454Z,86.00
2018-05-17T23:07:09.018Z,85.50
2018-05-17T23:09:37.856Z,85.40
2018-05-17T23:12:06.698Z,85.10
2018-05-17T23:14:35.531Z,84.70
2018-05-17T23:17:04.652Z,84.50
2018-05-17T23:19:34.338Z,83.90
2018-05-17T23:22:03.138Z,83.90
2018-05-17T23:24:32.040Z,83.90
2018-05-17T23:27:00.854Z,83.90
2018-05-17T23:29:30.426Z,83.70
2018-05-17T23:31:59.240Z,83.70
2018-05-17T23:34:28.062Z,83.60
2018-05-17T23:36:56.882Z,83.30
2018-05-17T23:39:25.688Z,83.30
2018-05-17T23:41:54.492Z,82.80
2018-05-17T23:44:23.300Z,82.70
2018-05-17T23:46:52.896Z,82.60
2018-05-17T23:49:22.471Z,82.70
2018-05-17T23:51:51.406Z,82.60
2018-05-17T23:54:20.209Z,82.50
2018-05-17T23:56:49.054Z,82.70
2018-05-17T23:59:18.662Z,83.00
